sensor_id;sensor_type;location;lat;lon;timestamp;P1;durP1;ratioP1;P2;durP2;ratioP2
43817;SDS011;29868;47.360;18.984;2023-12-28T00:01:22;38.60;;;24.55;;
43817;SDS011;29868;47.360;18.984;2023-12-28T00:03:47;40.65;;;25.60;;
43817;SDS011;29868;47.360;18.984;2023-12-28T00:06:13;39.67;;;24.70;;
43817;SDS011;29868;47.360;18.984;2023-12-28T00:08:38;38.10;;;24.80;;
43817;SDS011;29868;47.360;18.984;2023-12-28T00:11:04;37.50;;;23.35;;
43817;SDS011;29868;47.360;18.984;2023-12-28T00:13:29;36.85;;;23.60;;
43817;SDS011;29868;47.360;18.984;2023-12-28T00:15:55;37.22;;;22.50;;
43817;SDS011;29868;47.360;18.984;2023-12-28T00:18:20;37.47;;;22.80;;
43817;SDS011;29868;47.360;18.984;2023-12-28T00:20:45;37.97;;;23.23;;
43817;SDS011;29868;47.360;18.984;2023-12-28T00:23:11;36.80;;;23.08;;
43817;SDS011;29868;47.360;18.984;2023-12-28T00:25:36;40.10;;;24.38;;
43817;SDS011;29868;47.360;18.984;2023-12-28T00:28:02;33.55;;;22.30;;
43817;SDS011;29868;47.360;18.984;2023-12-28T00:30:27;33.17;;;21.55;;
43817;SDS011;29868;47.360;18.984;2023-12-28T00:32:53;32.75;;;21.95;;
43817;SDS011;29868;47.360;18.984;2023-12-28T00:35:18;34.80;;;22.00;;
43817;SDS011;29868;47.360;18.984;2023-12-28T00:37:44;33.03;;;21.58;;
43817;SDS011;29868;47.360;18.984;2023-12-28T00:40:10;34.72;;;22.05;;
43817;SDS011;29868;47.360;18.984;2023-12-28T00:42:35;34.00;;;21.88;;
43817;SDS011;29868;47.360;18.984;2023-12-28T00:45:01;36.28;;;21.98;;
43817;SDS011;29868;47.360;18.984;2023-12-28T00:47:27;34.42;;;21.52;;
43817;SDS011;29868;47.360;18.984;2023-12-28T00:49:52;37.75;;;22.10;;
43817;SDS011;29868;47.360;18.984;2023-12-28T00:52:18;32.55;;;21.63;;
43817;SDS011;29868;47.360;18.984;2023-12-28T00:54:43;32.05;;;21.05;;
43817;SDS011;29868;47.360;18.984;2023-12-28T00:57:08;32.03;;;21.35;;
43817;SDS011;29868;47.360;18.984;2023-12-28T00:59:34;35.05;;;22.38;;
43817;SDS011;29868;47.360;18.984;2023-12-28T01:01:59;31.83;;;21.63;;
43817;SDS011;29868;47.360;18.984;2023-12-28T01:04:25;34.25;;;22.65;;
43817;SDS011;29868;47.360;18.984;2023-12-28T01:06:53;35.13;;;21.95;;
43817;SDS011;29868;47.360;18.984;2023-12-28T01:09:19;34.88;;;22.13;;
43817;SDS011;29868;47.360;18.984;2023-12-28T01:11:44;36.25;;;24.52;;
43817;SDS011;29868;47.360;18.984;2023-12-28T01:14:10;37.10;;;24.15;;
43817;SDS011;29868;47.360;18.984;2023-12-28T01:16:35;38.50;;;23.77;;
43817;SDS011;29868;47.360;18.984;2023-12-28T01:19:01;35.25;;;22.17;;
43817;SDS011;29868;47.360;18.984;2023-12-28T01:21:26;38.00;;;23.35;;
43817;SDS011;29868;47.360;18.984;2023-12-28T01:23:53;36.25;;;22.90;;
43817;SDS011;29868;47.360;18.984;2023-12-28T01:26:19;37.65;;;23.58;;
43817;SDS011;29868;47.360;18.984;2023-12-28T01:28:45;34.90;;;23.52;;
43817;SDS011;29868;47.360;18.984;2023-12-28T01:31:10;35.20;;;22.58;;
43817;SDS011;29868;47.360;18.984;2023-12-28T01:33:37;37.55;;;22.30;;
43817;SDS011;29868;47.360;18.984;2023-12-28T01:36:02;34.78;;;21.40;;
43817;SDS011;29868;47.360;18.984;2023-12-28T01:38:29;36.55;;;23.23;;
43817;SDS011;29868;47.360;18.984;2023-12-28T01:40:54;34.28;;;21.98;;
43817;SDS011;29868;47.360;18.984;2023-12-28T01:43:19;33.58;;;21.17;;
43817;SDS011;29868;47.360;18.984;2023-12-28T01:45:45;36.67;;;22.67;;
43817;SDS011;29868;47.360;18.984;2023-12-28T01:48:12;38.42;;;22.63;;
43817;SDS011;29868;47.360;18.984;2023-12-28T01:50:39;36.22;;;22.00;;
43817;SDS011;29868;47.360;18.984;2023-12-28T01:53:04;36.05;;;21.73;;
43817;SDS011;29868;47.360;18.984;2023-12-28T01:55:31;33.42;;;22.08;;
43817;SDS011;29868;47.360;18.984;2023-12-28T01:57:59;33.30;;;20.55;;
43817;SDS011;29868;47.360;18.984;2023-12-28T02:00:24;38.55;;;22.08;;
43817;SDS011;29868;47.360;18.984;2023-12-28T02:02:50;31.73;;;20.65;;
43817;SDS011;29868;47.360;18.984;2023-12-28T02:05:15;34.03;;;21.40;;
43817;SDS011;29868;47.360;18.984;2023-12-28T02:07:41;35.80;;;21.23;;
43817;SDS011;29868;47.360;18.984;2023-12-28T02:10:07;34.65;;;19.75;;
43817;SDS011;29868;47.360;18.984;2023-12-28T02:12:33;32.42;;;21.15;;
43817;SDS011;29868;47.360;18.984;2023-12-28T02:14:58;39.67;;;21.42;;
43817;SDS011;29868;47.360;18.984;2023-12-28T02:20:22;34.33;;;21.13;;
43817;SDS011;29868;47.360;18.984;2023-12-28T02:22:49;33.08;;;19.90;;
43817;SDS011;29868;47.360;18.984;2023-12-28T02:25:15;33.78;;;20.23;;
43817;SDS011;29868;47.360;18.984;2023-12-28T02:27:41;34.30;;;19.92;;
43817;SDS011;29868;47.360;18.984;2023-12-28T02:30:08;34.03;;;20.20;;
43817;SDS011;29868;47.360;18.984;2023-12-28T02:32:47;33.33;;;19.75;;
43817;SDS011;29868;47.360;18.984;2023-12-28T02:38:11;30.30;;;18.15;;
43817;SDS011;29868;47.360;18.984;2023-12-28T02:40:40;32.10;;;19.48;;
43817;SDS011;29868;47.360;18.984;2023-12-28T02:43:08;30.90;;;19.20;;
43817;SDS011;29868;47.360;18.984;2023-12-28T02:45:34;31.02;;;18.60;;
43817;SDS011;29868;47.360;18.984;2023-12-28T02:48:00;34.80;;;19.98;;
43817;SDS011;29868;47.360;18.984;2023-12-28T02:50:26;33.33;;;20.23;;
43817;SDS011;29868;47.360;18.984;2023-12-28T02:52:51;32.13;;;20.05;;
43817;SDS011;29868;47.360;18.984;2023-12-28T02:55:17;33.88;;;19.60;;
43817;SDS011;29868;47.360;18.984;2023-12-28T02:57:43;32.03;;;20.23;;
43817;SDS011;29868;47.360;18.984;2023-12-28T03:00:09;30.48;;;18.83;;
43817;SDS011;29868;47.360;18.984;2023-12-28T03:02:35;29.88;;;19.50;;
43817;SDS011;29868;47.360;18.984;2023-12-28T03:05:03;32.60;;;19.75;;
43817;SDS011;29868;47.360;18.984;2023-12-28T03:07:30;28.95;;;18.77;;
43817;SDS011;29868;47.360;18.984;2023-12-28T03:09:56;30.92;;;18.77;;
43817;SDS011;29868;47.360;18.984;2023-12-28T03:12:21;31.38;;;19.08;;
43817;SDS011;29868;47.360;18.984;2023-12-28T03:14:47;32.70;;;19.20;;
43817;SDS011;29868;47.360;18.984;2023-12-28T03:17:12;31.42;;;20.00;;
43817;SDS011;29868;47.360;18.984;2023-12-28T03:19:38;31.95;;;20.40;;
43817;SDS011;29868;47.360;18.984;2023-12-28T03:22:04;32.35;;;19.77;;
43817;SDS011;29868;47.360;18.984;2023-12-28T03:24:30;34.03;;;20.77;;
43817;SDS011;29868;47.360;18.984;2023-12-28T03:26:55;30.92;;;19.38;;
43817;SDS011;29868;47.360;18.984;2023-12-28T03:29:20;31.88;;;19.27;;
43817;SDS011;29868;47.360;18.984;2023-12-28T03:31:46;32.00;;;18.80;;
43817;SDS011;29868;47.360;18.984;2023-12-28T03:34:11;32.53;;;18.27;;
43817;SDS011;29868;47.360;18.984;2023-12-28T03:36:36;34.42;;;19.83;;
43817;SDS011;29868;47.360;18.984;2023-12-28T03:39:02;33.25;;;20.27;;
43817;SDS011;29868;47.360;18.984;2023-12-28T03:41:31;33.13;;;20.20;;
43817;SDS011;29868;47.360;18.984;2023-12-28T03:43:56;38.40;;;21.95;;
43817;SDS011;29868;47.360;18.984;2023-12-28T03:46:22;34.95;;;21.05;;
43817;SDS011;29868;47.360;18.984;2023-12-28T03:48:48;35.58;;;20.67;;
43817;SDS011;29868;47.360;18.984;2023-12-28T03:51:16;36.85;;;19.63;;
43817;SDS011;29868;47.360;18.984;2023-12-28T03:53:42;30.92;;;19.17;;
43817;SDS011;29868;47.360;18.984;2023-12-28T03:56:07;35.03;;;19.65;;
43817;SDS011;29868;47.360;18.984;2023-12-28T03:58:33;31.25;;;18.33;;
43817;SDS011;29868;47.360;18.984;2023-12-28T04:00:58;30.95;;;19.65;;
43817;SDS011;29868;47.360;18.984;2023-12-28T04:03:24;34.30;;;18.75;;
43817;SDS011;29868;47.360;18.984;2023-12-28T04:05:50;31.75;;;18.15;;
43817;SDS011;29868;47.360;18.984;2023-12-28T04:08:16;31.10;;;18.35;;
43817;SDS011;29868;47.360;18.984;2023-12-28T04:10:41;29.20;;;18.30;;
43817;SDS011;29868;47.360;18.984;2023-12-28T04:13:07;31.70;;;18.17;;
43817;SDS011;29868;47.360;18.984;2023-12-28T04:15:32;32.05;;;18.98;;
43817;SDS011;29868;47.360;18.984;2023-12-28T04:17:58;35.65;;;19.40;;
43817;SDS011;29868;47.360;18.984;2023-12-28T04:20:23;30.23;;;17.67;;
43817;SDS011;29868;47.360;18.984;2023-12-28T04:22:49;31.83;;;18.02;;
43817;SDS011;29868;47.360;18.984;2023-12-28T04:25:14;28.92;;;17.95;;
43817;SDS011;29868;47.360;18.984;2023-12-28T04:27:41;29.83;;;17.60;;
43817;SDS011;29868;47.360;18.984;2023-12-28T04:30:07;29.48;;;18.38;;
43817;SDS011;29868;47.360;18.984;2023-12-28T04:32:33;29.63;;;18.13;;
43817;SDS011;29868;47.360;18.984;2023-12-28T04:34:58;27.00;;;17.08;;
43817;SDS011;29868;47.360;18.984;2023-12-28T04:37:24;30.58;;;18.08;;
43817;SDS011;29868;47.360;18.984;2023-12-28T04:39:51;30.20;;;18.45;;
43817;SDS011;29868;47.360;18.984;2023-12-28T04:42:18;33.97;;;19.42;;
43817;SDS011;29868;47.360;18.984;2023-12-28T04:44:43;32.90;;;19.65;;
43817;SDS011;29868;47.360;18.984;2023-12-28T04:47:09;31.45;;;19.00;;
43817;SDS011;29868;47.360;18.984;2023-12-28T04:49:34;31.30;;;18.67;;
43817;SDS011;29868;47.360;18.984;2023-12-28T04:51:59;31.08;;;18.35;;
43817;SDS011;29868;47.360;18.984;2023-12-28T04:54:25;33.72;;;18.83;;
43817;SDS011;29868;47.360;18.984;2023-12-28T04:56:50;34.58;;;20.00;;
43817;SDS011;29868;47.360;18.984;2023-12-28T04:59:16;36.50;;;20.35;;
43817;SDS011;29868;47.360;18.984;2023-12-28T05:01:42;31.25;;;19.25;;
43817;SDS011;29868;47.360;18.984;2023-12-28T05:04:10;33.55;;;19.27;;
43817;SDS011;29868;47.360;18.984;2023-12-28T05:06:36;32.13;;;19.25;;
43817;SDS011;29868;47.360;18.984;2023-12-28T05:09:02;32.47;;;19.13;;
43817;SDS011;29868;47.360;18.984;2023-12-28T05:11:27;30.30;;;17.75;;
43817;SDS011;29868;47.360;18.984;2023-12-28T05:13:53;33.08;;;19.52;;
43817;SDS011;29868;47.360;18.984;2023-12-28T05:16:19;31.48;;;18.63;;
43817;SDS011;29868;47.360;18.984;2023-12-28T05:18:45;30.27;;;19.05;;
43817;SDS011;29868;47.360;18.984;2023-12-28T05:21:13;29.70;;;18.67;;
43817;SDS011;29868;47.360;18.984;2023-12-28T05:23:39;32.33;;;18.17;;
43817;SDS011;29868;47.360;18.984;2023-12-28T05:26:05;33.95;;;19.42;;
43817;SDS011;29868;47.360;18.984;2023-12-28T05:28:31;35.05;;;19.17;;
43817;SDS011;29868;47.360;18.984;2023-12-28T05:30:56;31.75;;;18.42;;
43817;SDS011;29868;47.360;18.984;2023-12-28T05:33:24;29.45;;;18.35;;
43817;SDS011;29868;47.360;18.984;2023-12-28T05:35:50;33.42;;;18.90;;
43817;SDS011;29868;47.360;18.984;2023-12-28T05:38:15;34.00;;;19.45;;
43817;SDS011;29868;47.360;18.984;2023-12-28T05:40:40;30.42;;;18.58;;
43817;SDS011;29868;47.360;18.984;2023-12-28T05:43:06;33.88;;;19.42;;
43817;SDS011;29868;47.360;18.984;2023-12-28T05:45:31;33.28;;;18.90;;
43817;SDS011;29868;47.360;18.984;2023-12-28T05:47:57;34.50;;;18.77;;
43817;SDS011;29868;47.360;18.984;2023-12-28T05:50:22;32.42;;;18.75;;
43817;SDS011;29868;47.360;18.984;2023-12-28T05:52:47;33.53;;;18.30;;
43817;SDS011;29868;47.360;18.984;2023-12-28T05:55:13;33.42;;;18.45;;
43817;SDS011;29868;47.360;18.984;2023-12-28T05:57:39;31.73;;;17.98;;
43817;SDS011;29868;47.360;18.984;2023-12-28T06:00:04;33.67;;;18.48;;
43817;SDS011;29868;47.360;18.984;2023-12-28T06:02:31;30.80;;;18.52;;
43817;SDS011;29868;47.360;18.984;2023-12-28T06:04:57;35.08;;;18.77;;
43817;SDS011;29868;47.360;18.984;2023-12-28T06:07:22;36.03;;;21.00;;
43817;SDS011;29868;47.360;18.984;2023-12-28T06:09:47;38.53;;;22.98;;
43817;SDS011;29868;47.360;18.984;2023-12-28T06:12:13;38.47;;;22.05;;
43817;SDS011;29868;47.360;18.984;2023-12-28T06:14:39;36.10;;;21.20;;
43817;SDS011;29868;47.360;18.984;2023-12-28T06:17:04;37.88;;;21.23;;
43817;SDS011;29868;47.360;18.984;2023-12-28T06:19:29;37.28;;;22.23;;
43817;SDS011;29868;47.360;18.984;2023-12-28T06:21:55;40.78;;;24.00;;
43817;SDS011;29868;47.360;18.984;2023-12-28T06:24:20;37.60;;;22.15;;
43817;SDS011;29868;47.360;18.984;2023-12-28T06:26:46;40.47;;;24.75;;
43817;SDS011;29868;47.360;18.984;2023-12-28T06:29:11;44.00;;;23.75;;
43817;SDS011;29868;47.360;18.984;2023-12-28T06:31:36;39.15;;;22.15;;
43817;SDS011;29868;47.360;18.984;2023-12-28T06:34:02;39.67;;;23.23;;
43817;SDS011;29868;47.360;18.984;2023-12-28T06:36:28;42.78;;;24.08;;
43817;SDS011;29868;47.360;18.984;2023-12-28T06:38:54;69.10;;;40.22;;
43817;SDS011;29868;47.360;18.984;2023-12-28T06:41:19;44.85;;;25.88;;
43817;SDS011;29868;47.360;18.984;2023-12-28T06:43:44;54.40;;;31.63;;
43817;SDS011;29868;47.360;18.984;2023-12-28T06:46:10;51.55;;;29.88;;
43817;SDS011;29868;47.360;18.984;2023-12-28T06:48:35;52.05;;;31.60;;
43817;SDS011;29868;47.360;18.984;2023-12-28T06:51:01;44.85;;;25.73;;
43817;SDS011;29868;47.360;18.984;2023-12-28T06:53:27;39.92;;;24.45;;
43817;SDS011;29868;47.360;18.984;2023-12-28T06:55:52;42.92;;;23.85;;
43817;SDS011;29868;47.360;18.984;2023-12-28T06:58:18;41.53;;;24.38;;
43817;SDS011;29868;47.360;18.984;2023-12-28T07:00:43;42.58;;;22.77;;
43817;SDS011;29868;47.360;18.984;2023-12-28T07:03:09;42.35;;;23.98;;
43817;SDS011;29868;47.360;18.984;2023-12-28T07:05:35;44.80;;;25.05;;
43817;SDS011;29868;47.360;18.984;2023-12-28T07:08:00;44.63;;;26.33;;
43817;SDS011;29868;47.360;18.984;2023-12-28T07:10:26;46.45;;;26.13;;
43817;SDS011;29868;47.360;18.984;2023-12-28T07:12:51;43.85;;;25.63;;
43817;SDS011;29868;47.360;18.984;2023-12-28T07:15:17;50.75;;;26.75;;
43817;SDS011;29868;47.360;18.984;2023-12-28T07:17:42;45.38;;;25.75;;
43817;SDS011;29868;47.360;18.984;2023-12-28T07:20:08;45.50;;;26.90;;
43817;SDS011;29868;47.360;18.984;2023-12-28T07:22:37;46.75;;;26.27;;
43817;SDS011;29868;47.360;18.984;2023-12-28T07:25:04;49.47;;;26.85;;
43817;SDS011;29868;47.360;18.984;2023-12-28T07:27:30;49.22;;;26.38;;
43817;SDS011;29868;47.360;18.984;2023-12-28T07:29:56;46.35;;;25.88;;
43817;SDS011;29868;47.360;18.984;2023-12-28T07:32:21;48.97;;;26.17;;
43817;SDS011;29868;47.360;18.984;2023-12-28T07:34:50;52.35;;;28.45;;
43817;SDS011;29868;47.360;18.984;2023-12-28T07:37:17;55.22;;;28.65;;
43817;SDS011;29868;47.360;18.984;2023-12-28T07:39:42;48.78;;;27.13;;
43817;SDS011;29868;47.360;18.984;2023-12-28T07:42:08;57.40;;;28.80;;
43817;SDS011;29868;47.360;18.984;2023-12-28T07:44:33;54.50;;;30.27;;
43817;SDS011;29868;47.360;18.984;2023-12-28T07:46:58;60.72;;;30.00;;
43817;SDS011;29868;47.360;18.984;2023-12-28T07:49:24;81.90;;;38.60;;
43817;SDS011;29868;47.360;18.984;2023-12-28T07:51:49;75.38;;;41.05;;
43817;SDS011;29868;47.360;18.984;2023-12-28T07:54:14;67.85;;;36.45;;
43817;SDS011;29868;47.360;18.984;2023-12-28T07:56:40;53.00;;;29.45;;
43817;SDS011;29868;47.360;18.984;2023-12-28T07:59:05;52.55;;;27.52;;
43817;SDS011;29868;47.360;18.984;2023-12-28T08:01:31;50.30;;;27.73;;
43817;SDS011;29868;47.360;18.984;2023-12-28T08:03:58;49.03;;;26.95;;
43817;SDS011;29868;47.360;18.984;2023-12-28T08:06:24;50.30;;;27.67;;
43817;SDS011;29868;47.360;18.984;2023-12-28T08:08:49;90.38;;;44.00;;
43817;SDS011;29868;47.360;18.984;2023-12-28T08:11:15;98.38;;;50.47;;
43817;SDS011;29868;47.360;18.984;2023-12-28T08:13:40;73.60;;;40.15;;
43817;SDS011;29868;47.360;18.984;2023-12-28T08:16:06;58.03;;;31.92;;
43817;SDS011;29868;47.360;18.984;2023-12-28T08:18:31;54.00;;;30.92;;
43817;SDS011;29868;47.360;18.984;2023-12-28T08:20:57;57.67;;;31.42;;
43817;SDS011;29868;47.360;18.984;2023-12-28T08:23:24;57.97;;;32.60;;
43817;SDS011;29868;47.360;18.984;2023-12-28T08:25:49;56.55;;;30.40;;
43817;SDS011;29868;47.360;18.984;2023-12-28T08:28:14;54.05;;;29.25;;
43817;SDS011;29868;47.360;18.984;2023-12-28T08:30:40;51.25;;;29.63;;
43817;SDS011;29868;47.360;18.984;2023-12-28T08:33:05;52.53;;;29.05;;
43817;SDS011;29868;47.360;18.984;2023-12-28T08:35:31;46.33;;;27.95;;
43817;SDS011;29868;47.360;18.984;2023-12-28T08:37:56;46.92;;;27.45;;
43817;SDS011;29868;47.360;18.984;2023-12-28T08:40:21;46.28;;;27.75;;
43817;SDS011;29868;47.360;18.984;2023-12-28T08:42:47;46.88;;;26.88;;
43817;SDS011;29868;47.360;18.984;2023-12-28T08:45:12;47.05;;;27.30;;
43817;SDS011;29868;47.360;18.984;2023-12-28T08:47:38;48.25;;;26.65;;
43817;SDS011;29868;47.360;18.984;2023-12-28T08:50:03;48.63;;;26.90;;
43817;SDS011;29868;47.360;18.984;2023-12-28T08:52:29;47.58;;;28.08;;
43817;SDS011;29868;47.360;18.984;2023-12-28T08:54:54;48.25;;;28.05;;
43817;SDS011;29868;47.360;18.984;2023-12-28T08:57:20;51.92;;;28.50;;
43817;SDS011;29868;47.360;18.984;2023-12-28T08:59:45;42.70;;;25.58;;
43817;SDS011;29868;47.360;18.984;2023-12-28T09:02:11;45.30;;;25.65;;
43817;SDS011;29868;47.360;18.984;2023-12-28T09:04:36;41.63;;;25.08;;
43817;SDS011;29868;47.360;18.984;2023-12-28T09:07:03;39.92;;;24.35;;
43817;SDS011;29868;47.360;18.984;2023-12-28T09:09:29;40.13;;;23.90;;
43817;SDS011;29868;47.360;18.984;2023-12-28T09:11:55;38.33;;;24.42;;
43817;SDS011;29868;47.360;18.984;2023-12-28T09:14:20;37.92;;;23.33;;
43817;SDS011;29868;47.360;18.984;2023-12-28T09:16:46;41.92;;;26.10;;
43817;SDS011;29868;47.360;18.984;2023-12-28T09:19:12;48.22;;;28.65;;
43817;SDS011;29868;47.360;18.984;2023-12-28T09:21:38;45.17;;;28.20;;
43817;SDS011;29868;47.360;18.984;2023-12-28T09:24:04;42.67;;;27.70;;
43817;SDS011;29868;47.360;18.984;2023-12-28T09:26:29;40.33;;;26.15;;
43817;SDS011;29868;47.360;18.984;2023-12-28T09:28:55;44.75;;;26.23;;
43817;SDS011;29868;47.360;18.984;2023-12-28T09:31:20;44.03;;;27.08;;
43817;SDS011;29868;47.360;18.984;2023-12-28T09:33:45;38.90;;;24.60;;
43817;SDS011;29868;47.360;18.984;2023-12-28T09:36:11;40.03;;;25.50;;
43817;SDS011;29868;47.360;18.984;2023-12-28T09:38:40;37.80;;;24.65;;
43817;SDS011;29868;47.360;18.984;2023-12-28T09:41:12;37.85;;;23.98;;
43817;SDS011;29868;47.360;18.984;2023-12-28T09:43:46;35.58;;;22.95;;
43817;SDS011;29868;47.360;18.984;2023-12-28T09:46:14;35.83;;;22.75;;
43817;SDS011;29868;47.360;18.984;2023-12-28T09:48:40;32.78;;;22.02;;
43817;SDS011;29868;47.360;18.984;2023-12-28T09:51:06;33.83;;;22.80;;
43817;SDS011;29868;47.360;18.984;2023-12-28T09:53:31;32.50;;;22.48;;
43817;SDS011;29868;47.360;18.984;2023-12-28T09:55:57;34.30;;;21.23;;
43817;SDS011;29868;47.360;18.984;2023-12-28T09:58:22;32.17;;;19.95;;
43817;SDS011;29868;47.360;18.984;2023-12-28T10:00:48;30.52;;;19.65;;
43817;SDS011;29868;47.360;18.984;2023-12-28T10:03:15;28.95;;;18.77;;
43817;SDS011;29868;47.360;18.984;2023-12-28T10:05:42;25.75;;;18.33;;
43817;SDS011;29868;47.360;18.984;2023-12-28T10:08:08;27.38;;;17.58;;
43817;SDS011;29868;47.360;18.984;2023-12-28T10:10:36;26.25;;;18.50;;
43817;SDS011;29868;47.360;18.984;2023-12-28T10:13:01;29.75;;;17.88;;
43817;SDS011;29868;47.360;18.984;2023-12-28T10:15:27;27.48;;;18.02;;
43817;SDS011;29868;47.360;18.984;2023-12-28T10:17:52;29.02;;;18.95;;
43817;SDS011;29868;47.360;18.984;2023-12-28T10:20:18;26.27;;;18.13;;
43817;SDS011;29868;47.360;18.984;2023-12-28T10:22:43;29.35;;;19.05;;
43817;SDS011;29868;47.360;18.984;2023-12-28T10:25:09;27.63;;;18.73;;
43817;SDS011;29868;47.360;18.984;2023-12-28T10:27:41;44.45;;;27.58;;
43817;SDS011;29868;47.360;18.984;2023-12-28T10:30:07;33.28;;;22.35;;
43817;SDS011;29868;47.360;18.984;2023-12-28T10:32:35;30.90;;;20.63;;
43817;SDS011;29868;47.360;18.984;2023-12-28T10:35:01;29.45;;;19.58;;
43817;SDS011;29868;47.360;18.984;2023-12-28T10:37:27;26.70;;;18.55;;
43817;SDS011;29868;47.360;18.984;2023-12-28T10:39:53;23.67;;;17.08;;
43817;SDS011;29868;47.360;18.984;2023-12-28T10:42:29;25.85;;;17.80;;
43817;SDS011;29868;47.360;18.984;2023-12-28T10:45:03;26.55;;;16.63;;
43817;SDS011;29868;47.360;18.984;2023-12-28T10:47:33;23.20;;;16.08;;
43817;SDS011;29868;47.360;18.984;2023-12-28T10:50:03;25.17;;;16.55;;
43817;SDS011;29868;47.360;18.984;2023-12-28T10:52:30;22.80;;;15.52;;
43817;SDS011;29868;47.360;18.984;2023-12-28T11:00:30;24.57;;;16.20;;
43817;SDS011;29868;47.360;18.984;2023-12-28T11:03:02;23.95;;;16.20;;
43817;SDS011;29868;47.360;18.984;2023-12-28T11:05:28;20.05;;;15.40;;
43817;SDS011;29868;47.360;18.984;2023-12-28T11:07:55;21.80;;;15.05;;
43817;SDS011;29868;47.360;18.984;2023-12-28T11:10:23;21.88;;;15.02;;
43817;SDS011;29868;47.360;18.984;2023-12-28T11:12:52;21.92;;;15.55;;
43817;SDS011;29868;47.360;18.984;2023-12-28T11:15:18;25.40;;;15.57;;
43817;SDS011;29868;47.360;18.984;2023-12-28T11:17:44;20.80;;;14.65;;
43817;SDS011;29868;47.360;18.984;2023-12-28T11:20:10;23.02;;;15.50;;
43817;SDS011;29868;47.360;18.984;2023-12-28T11:22:36;22.60;;;15.82;;
43817;SDS011;29868;47.360;18.984;2023-12-28T11:25:03;26.42;;;17.13;;
43817;SDS011;29868;47.360;18.984;2023-12-28T11:27:34;25.23;;;15.75;;
43817;SDS011;29868;47.360;18.984;2023-12-28T11:30:03;26.52;;;16.70;;
43817;SDS011;29868;47.360;18.984;2023-12-28T11:32:32;21.65;;;14.27;;
43817;SDS011;29868;47.360;18.984;2023-12-28T11:34:59;22.73;;;14.70;;
43817;SDS011;29868;47.360;18.984;2023-12-28T11:37:26;21.25;;;14.88;;
43817;SDS011;29868;47.360;18.984;2023-12-28T11:39:52;20.30;;;14.05;;
43817;SDS011;29868;47.360;18.984;2023-12-28T11:42:21;20.17;;;14.02;;
43817;SDS011;29868;47.360;18.984;2023-12-28T11:44:48;20.33;;;14.45;;
43817;SDS011;29868;47.360;18.984;2023-12-28T11:47:22;20.63;;;14.25;;
43817;SDS011;29868;47.360;18.984;2023-12-28T11:49:49;20.58;;;13.82;;
43817;SDS011;29868;47.360;18.984;2023-12-28T11:52:31;20.52;;;14.18;;
43817;SDS011;29868;47.360;18.984;2023-12-28T11:54:57;21.90;;;14.55;;
43817;SDS011;29868;47.360;18.984;2023-12-28T11:57:26;20.13;;;13.85;;
43817;SDS011;29868;47.360;18.984;2023-12-28T11:59:58;20.33;;;13.88;;
43817;SDS011;29868;47.360;18.984;2023-12-28T12:02:24;24.75;;;14.88;;
43817;SDS011;29868;47.360;18.984;2023-12-28T12:04:51;22.77;;;14.95;;
43817;SDS011;29868;47.360;18.984;2023-12-28T12:07:16;20.13;;;14.15;;
43817;SDS011;29868;47.360;18.984;2023-12-28T12:09:42;19.17;;;13.02;;
43817;SDS011;29868;47.360;18.984;2023-12-28T12:12:08;18.27;;;13.23;;
43817;SDS011;29868;47.360;18.984;2023-12-28T12:14:34;20.10;;;13.38;;
43817;SDS011;29868;47.360;18.984;2023-12-28T12:17:01;18.50;;;13.30;;
43817;SDS011;29868;47.360;18.984;2023-12-28T12:19:27;21.38;;;13.52;;
43817;SDS011;29868;47.360;18.984;2023-12-28T12:21:53;22.00;;;14.38;;
43817;SDS011;29868;47.360;18.984;2023-12-28T12:24:20;19.77;;;12.77;;
43817;SDS011;29868;47.360;18.984;2023-12-28T12:26:46;18.50;;;13.60;;
43817;SDS011;29868;47.360;18.984;2023-12-28T12:29:12;20.38;;;14.07;;
43817;SDS011;29868;47.360;18.984;2023-12-28T12:31:39;18.50;;;13.23;;
43817;SDS011;29868;47.360;18.984;2023-12-28T12:34:07;18.33;;;12.13;;
43817;SDS011;29868;47.360;18.984;2023-12-28T12:36:33;17.52;;;12.65;;
43817;SDS011;29868;47.360;18.984;2023-12-28T12:38:59;18.85;;;12.65;;
43817;SDS011;29868;47.360;18.984;2023-12-28T12:41:25;18.20;;;12.50;;
43817;SDS011;29868;47.360;18.984;2023-12-28T12:43:51;19.15;;;13.50;;
43817;SDS011;29868;47.360;18.984;2023-12-28T12:46:17;17.58;;;12.50;;
43817;SDS011;29868;47.360;18.984;2023-12-28T12:48:42;18.02;;;12.50;;
43817;SDS011;29868;47.360;18.984;2023-12-28T12:51:08;17.35;;;12.23;;
43817;SDS011;29868;47.360;18.984;2023-12-28T12:53:34;17.35;;;11.48;;
43817;SDS011;29868;47.360;18.984;2023-12-28T12:56:00;16.73;;;12.05;;
43817;SDS011;29868;47.360;18.984;2023-12-28T12:58:25;19.35;;;12.25;;
43817;SDS011;29868;47.360;18.984;2023-12-28T13:00:52;19.27;;;11.50;;
43817;SDS011;29868;47.360;18.984;2023-12-28T13:03:19;17.80;;;11.80;;
43817;SDS011;29868;47.360;18.984;2023-12-28T13:05:45;17.38;;;11.77;;
43817;SDS011;29868;47.360;18.984;2023-12-28T13:08:10;17.13;;;11.13;;
43817;SDS011;29868;47.360;18.984;2023-12-28T13:10:36;16.58;;;12.05;;
43817;SDS011;29868;47.360;18.984;2023-12-28T13:13:01;17.25;;;11.52;;
43817;SDS011;29868;47.360;18.984;2023-12-28T13:15:27;17.88;;;11.90;;
43817;SDS011;29868;47.360;18.984;2023-12-28T13:17:53;17.08;;;11.40;;
43817;SDS011;29868;47.360;18.984;2023-12-28T13:20:18;15.50;;;11.18;;
43817;SDS011;29868;47.360;18.984;2023-12-28T13:22:44;17.50;;;11.13;;
43817;SDS011;29868;47.360;18.984;2023-12-28T13:25:09;16.70;;;10.88;;
43817;SDS011;29868;47.360;18.984;2023-12-28T13:27:35;17.45;;;10.88;;
43817;SDS011;29868;47.360;18.984;2023-12-28T13:30:00;20.42;;;13.55;;
43817;SDS011;29868;47.360;18.984;2023-12-28T13:32:25;17.75;;;11.80;;
43817;SDS011;29868;47.360;18.984;2023-12-28T13:34:51;18.50;;;12.82;;
43817;SDS011;29868;47.360;18.984;2023-12-28T13:37:16;21.38;;;13.57;;
43817;SDS011;29868;47.360;18.984;2023-12-28T13:39:42;21.40;;;14.35;;
43817;SDS011;29868;47.360;18.984;2023-12-28T13:42:08;19.98;;;13.48;;
43817;SDS011;29868;47.360;18.984;2023-12-28T13:44:34;18.90;;;14.00;;
43817;SDS011;29868;47.360;18.984;2023-12-28T13:47:00;21.40;;;13.40;;
43817;SDS011;29868;47.360;18.984;2023-12-28T13:49:30;18.92;;;13.15;;
43817;SDS011;29868;47.360;18.984;2023-12-28T13:51:56;18.67;;;13.35;;
43817;SDS011;29868;47.360;18.984;2023-12-28T13:54:21;20.55;;;13.68;;
43817;SDS011;29868;47.360;18.984;2023-12-28T13:56:47;15.10;;;12.27;;
43817;SDS011;29868;47.360;18.984;2023-12-28T13:59:13;19.85;;;13.65;;
43817;SDS011;29868;47.360;18.984;2023-12-28T14:01:39;16.92;;;12.35;;
43817;SDS011;29868;47.360;18.984;2023-12-28T14:04:05;22.02;;;13.48;;
43817;SDS011;29868;47.360;18.984;2023-12-28T14:06:30;18.35;;;13.35;;
43817;SDS011;29868;47.360;18.984;2023-12-28T14:08:56;18.48;;;12.40;;
43817;SDS011;29868;47.360;18.984;2023-12-28T14:11:22;18.90;;;12.65;;
43817;SDS011;29868;47.360;18.984;2023-12-28T14:13:48;17.73;;;12.90;;